Time;durP1;ratioP1;P1;durP2;ratioP2;P2;SDS_P1;SDS_P2;PMS_P1;PMS_P2;Temp;Humidity;BMP_temperature;BMP_pressure;BME280_temperature;BME280_humidity;BME280_pressure;Samples;Min_cycle;Max_cycle;Signal;HPM_P1;HPM_P2
2022/07/18 00:00:24;;;;;;;7.32;2.13;;;18.40;99.90;;;;;;5038843;28;20036;-68
2022/07/18 00:02:50;;;;;;;3.95;1.67;;;18.40;99.90;;;;;;5032300;28;20122;-66
2022/07/18 00:05:15;;;;;;;4.32;1.80;;;18.30;99.90;;;;;;5037344;28;20520;-69
2022/07/18 00:07:41;;;;;;;5.70;1.80;;;18.40;99.90;;;;;;5036331;28;20033;-68
2022/07/18 00:10:07;;;;;;;3.83;1.75;;;18.30;99.90;;;;;;5031128;28;20378;-70
2022/07/18 00:12:32;;;;;;;4.07;2.10;;;18.30;99.90;;;;;;5030172;28;20029;-69
2022/07/18 00:14:58;;;;;;;4.68;2.00;;;18.30;99.90;;;;;;5034408;28;20137;-70
2022/07/18 00:17:24;;;;;;;4.68;1.88;;;18.30;99.90;;;;;;5062737;28;20021;-74
2022/07/18 00:19:49;;;;;;;3.08;1.60;;;18.20;99.90;;;;;;5068747;28;20048;-70
2022/07/18 00:22:15;;;;;;;4.50;1.83;;;18.20;99.90;;;;;;5065239;28;20035;-71
2022/07/18 00:24:40;;;;;;;3.92;1.67;;;18.20;99.90;;;;;;5039768;28;20116;-67
2022/07/18 00:27:07;;;;;;;4.28;1.65;;;18.20;99.90;;;;;;5033767;28;20018;-70
2022/07/18 00:29:36;;;;;;;3.13;1.17;;;18.20;99.90;;;;;;5037804;28;20032;-70
2022/07/18 00:32:03;;;;;;;3.70;1.60;;;18.10;99.90;;;;;;5036521;28;20512;-68
2022/07/18 00:34:29;;;;;;;4.05;1.55;;;18.10;99.90;;;;;;5036610;28;20485;-69
2022/07/18 00:36:54;;;;;;;6.13;1.60;;;18.10;99.90;;;;;;5035968;28;20026;-69
2022/07/18 00:39:20;;;;;;;3.97;1.65;;;18.00;99.90;;;;;;5037081;28;20112;-69
2022/07/18 00:41:48;;;;;;;3.17;1.27;;;18.00;99.90;;;;;;5035158;28;20030;-69
2022/07/18 00:44:22;;;;;;;4.22;1.35;;;18.00;99.90;;;;;;5036846;28;20113;-70
2022/07/18 00:46:56;;;;;;;6.78;1.52;;;18.00;99.90;;;;;;5025264;28;20128;-70
2022/07/18 00:49:22;;;;;;;3.08;1.42;;;17.90;99.90;;;;;;5041832;28;20029;-69
2022/07/18 00:51:48;;;;;;;4.13;1.60;;;17.90;99.90;;;;;;5028999;28;20115;-70
2022/07/18 00:54:14;;;;;;;4.25;1.52;;;17.90;99.90;;;;;;5029295;28;20033;-69
2022/07/18 00:56:41;;;;;;;4.57;1.48;;;17.90;99.90;;;;;;5027683;28;20029;-68
2022/07/18 00:59:06;;;;;;;4.15;1.85;;;17.90;99.90;;;;;;5029138;28;20152;-69
2022/07/18 01:01:47;;;;;;;4.72;1.70;;;17.90;99.90;;;;;;5030810;28;20545;-70
2022/07/18 01:04:21;;;;;;;4.63;2.13;;;17.90;99.90;;;;;;5028917;28;20052;-69
2022/07/18 01:06:49;;;;;;;7.30;1.65;;;17.90;99.90;;;;;;5026291;28;20098;-69
2022/07/18 01:09:16;;;;;;;3.30;1.40;;;17.90;99.90;;;;;;5030854;28;20030;-69
2022/07/18 01:11:44;;;;;;;3.72;1.30;;;17.90;99.90;;;;;;5030183;28;20033;-66
2022/07/18 01:14:10;;;;;;;6.72;1.75;;;17.80;99.90;;;;;;5029876;28;20116;-69
2022/07/18 01:16:36;;;;;;;3.13;1.48;;;17.80;99.90;;;;;;5028065;28;20116;-69
2022/07/18 01:19:03;;;;;;;7.15;1.60;;;17.70;99.90;;;;;;5028506;28;20462;-69
2022/07/18 01:21:28;;;;;;;6.38;1.70;;;17.70;99.90;;;;;;5029991;28;20033;-67
2022/07/18 01:23:54;;;;;;;4.22;1.30;;;17.70;99.90;;;;;;5030073;28;20045;-69
2022/07/18 01:26:20;;;;;;;4.32;1.55;;;17.60;99.90;;;;;;5033405;28;20120;-70
2022/07/18 01:28:46;;;;;;;4.32;1.88;;;17.60;99.90;;;;;;5030583;28;20405;-70
2022/07/18 01:31:12;;;;;;;4.55;1.48;;;17.60;99.90;;;;;;5031126;28;20041;-68
2022/07/18 01:33:38;;;;;;;4.20;1.42;;;17.60;99.90;;;;;;5029147;28;20454;-70
2022/07/18 01:36:06;;;;;;;5.10;1.30;;;17.60;99.90;;;;;;5030831;28;20751;-69
2022/07/18 01:38:32;;;;;;;4.15;1.83;;;17.60;99.90;;;;;;5029451;28;20164;-69
2022/07/18 01:40:59;;;;;;;4.25;1.50;;;17.50;99.90;;;;;;5030291;28;20029;-66
2022/07/18 01:43:26;;;;;;;3.42;1.20;;;17.60;99.90;;;;;;5030284;28;20034;-70
2022/07/18 01:45:52;;;;;;;5.70;1.23;;;17.50;99.90;;;;;;5028604;28;20041;-70
2022/07/18 01:48:19;;;;;;;3.83;1.40;;;17.50;99.90;;;;;;5029880;28;20048;-67
2022/07/18 01:50:44;;;;;;;4.43;1.60;;;17.40;99.90;;;;;;5029320;28;20398;-66
2022/07/18 01:53:10;;;;;;;4.57;1.50;;;17.40;99.90;;;;;;5028620;28;20032;-69
2022/07/18 01:55:36;;;;;;;3.47;1.35;;;17.40;99.90;;;;;;5029382;28;20041;-68
2022/07/18 01:58:01;;;;;;;5.53;1.42;;;17.40;99.90;;;;;;5028271;28;20035;-68
2022/07/18 02:00:27;;;;;;;5.78;1.63;;;17.40;99.90;;;;;;5027558;28;20072;-68
2022/07/18 02:02:53;;;;;;;2.55;1.10;;;17.40;99.90;;;;;;5026461;28;20072;-70
2022/07/18 02:05:18;;;;;;;4.75;1.80;;;17.40;99.90;;;;;;5029244;28;20072;-69
2022/07/18 02:07:44;;;;;;;4.82;1.67;;;17.40;99.90;;;;;;5029001;28;20084;-68
2022/07/18 02:10:13;;;;;;;3.60;1.42;;;17.40;99.70;;;;;;5029775;28;20617;-67
2022/07/18 02:12:39;;;;;;;4.90;1.30;;;17.50;99.50;;;;;;5018999;28;20116;-71
2022/07/18 02:15:07;;;;;;;4.38;1.58;;;17.50;99.50;;;;;;5032627;28;20554;-71
2022/07/18 02:17:33;;;;;;;5.53;1.40;;;17.50;99.40;;;;;;5031870;28;20040;-69
2022/07/18 02:19:58;;;;;;;3.15;1.27;;;17.50;99.40;;;;;;5027375;28;20034;-67
2022/07/18 02:22:24;;;;;;;3.63;1.33;;;17.60;99.60;;;;;;5027715;28;20405;-68
2022/07/18 02:24:51;;;;;;;3.60;1.55;;;17.50;99.50;;;;;;5028534;28;20047;-70
2022/07/18 02:27:17;;;;;;;5.72;1.90;;;17.50;99.60;;;;;;5029033;28;20067;-71
2022/07/18 02:29:43;;;;;;;5.35;1.35;;;17.40;99.80;;;;;;5026814;28;20021;-69
2022/07/18 02:32:08;;;;;;;3.42;1.52;;;17.40;99.80;;;;;;5028839;28;20034;-71
2022/07/18 02:34:34;;;;;;;6.35;1.80;;;17.40;99.90;;;;;;5028449;28;20030;-71
2022/07/18 02:37:01;;;;;;;3.67;1.40;;;17.30;99.90;;;;;;5028927;28;20502;-67
2022/07/18 02:39:26;;;;;;;2.42;1.20;;;17.30;99.90;;;;;;5029050;28;20076;-70
2022/07/18 02:41:52;;;;;;;3.38;1.40;;;17.30;99.90;;;;;;5026225;28;20524;-70
2022/07/18 02:44:18;;;;;;;3.20;1.45;;;17.30;99.90;;;;;;5028763;28;20056;-70
2022/07/18 02:46:44;;;;;;;5.90;1.83;;;17.20;99.90;;;;;;5028103;28;20057;-67
2022/07/18 02:49:10;;;;;;;3.78;1.33;;;17.20;99.90;;;;;;5027658;28;20398;-70
2022/07/18 02:51:35;;;;;;;3.33;1.48;;;17.20;99.90;;;;;;5027201;28;20468;-70
2022/07/18 02:54:01;;;;;;;4.30;1.88;;;17.10;99.90;;;;;;5028193;28;20030;-68
2022/07/18 02:56:27;;;;;;;5.50;1.67;;;17.20;99.90;;;;;;5028613;28;20022;-70
2022/07/18 02:58:52;;;;;;;3.35;1.40;;;17.10;99.90;;;;;;5026911;28;20068;-69
2022/07/18 03:01:18;;;;;;;4.90;1.45;;;17.10;99.90;;;;;;5029073;28;20029;-70
2022/07/18 03:03:43;;;;;;;5.82;2.10;;;17.10;99.90;;;;;;5027404;28;20387;-69
2022/07/18 03:06:09;;;;;;;4.50;1.50;;;17.10;99.90;;;;;;5029124;28;20753;-70
2022/07/18 03:08:35;;;;;;;5.70;1.52;;;17.00;99.90;;;;;;5028503;28;20037;-71
2022/07/18 03:11:00;;;;;;;2.55;1.33;;;17.00;99.90;;;;;;5028379;28;20034;-70
2022/07/18 03:13:26;;;;;;;3.55;1.25;;;17.00;99.90;;;;;;5030344;28;20029;-70
2022/07/18 03:15:51;;;;;;;3.50;1.30;;;17.00;99.90;;;;;;5027984;28;20049;-68
2022/07/18 03:18:17;;;;;;;5.72;1.30;;;17.00;99.90;;;;;;5029214;28;20036;-67
2022/07/18 03:20:43;;;;;;;5.90;1.67;;;17.00;99.90;;;;;;5031638;28;20057;-68
2022/07/18 03:23:09;;;;;;;2.95;1.48;;;17.00;99.90;;;;;;5030783;28;20033;-70
2022/07/18 03:25:35;;;;;;;6.53;1.30;;;17.00;99.90;;;;;;5034069;28;20037;-69
2022/07/18 03:28:01;;;;;;;6.57;2.80;;;16.90;99.90;;;;;;5032360;28;20034;-69
2022/07/18 03:30:26;;;;;;;3.63;1.20;;;16.90;99.90;;;;;;5032653;28;20033;-68
2022/07/18 03:32:52;;;;;;;3.60;1.58;;;16.90;99.90;;;;;;5031514;28;20490;-69
2022/07/18 03:35:18;;;;;;;6.20;1.50;;;16.90;99.90;;;;;;5033086;28;20469;-70
2022/07/18 03:37:44;;;;;;;2.45;1.17;;;16.90;99.90;;;;;;5031513;28;20068;-68
2022/07/18 03:40:10;;;;;;;4.03;1.13;;;16.90;99.90;;;;;;5032629;28;20103;-66
2022/07/18 03:42:40;;;;;;;3.40;1.40;;;16.90;99.90;;;;;;5027923;28;20140;-68
2022/07/18 03:45:07;;;;;;;3.77;1.10;;;17.00;99.90;;;;;;5028655;28;20788;-70
2022/07/18 03:47:33;;;;;;;4.72;1.50;;;17.00;99.90;;;;;;5030637;28;20029;-68
2022/07/18 03:49:59;;;;;;;4.60;2.28;;;17.00;99.90;;;;;;5031794;28;20036;-69
2022/07/18 03:52:24;;;;;;;8.15;1.48;;;17.00;99.90;;;;;;5030396;28;20476;-69
2022/07/18 03:54:50;;;;;;;5.22;1.65;;;17.00;99.90;;;;;;5030769;28;20112;-69
2022/07/18 03:57:15;;;;;;;6.88;1.45;;;17.00;99.90;;;;;;5031719;28;20064;-69
2022/07/18 03:59:41;;;;;;;3.42;1.30;;;17.10;99.90;;;;;;5031264;28;20038;-70
2022/07/18 04:02:06;;;;;;;4.30;1.83;;;17.00;99.90;;;;;;5034468;28;20037;-71
2022/07/18 04:04:32;;;;;;;4.60;1.80;;;17.00;99.90;;;;;;5052377;28;20055;-69
2022/07/18 04:06:59;;;;;;;3.42;1.50;;;17.10;99.80;;;;;;5053477;28;20045;-71
2022/07/18 04:09:25;;;;;;;7.05;1.73;;;17.10;99.90;;;;;;5048917;28;20045;-71
2022/07/18 04:11:51;;;;;;;4.07;1.70;;;17.10;99.90;;;;;;5032968;28;20036;-70
2022/07/18 04:14:17;;;;;;;5.97;1.50;;;17.20;99.60;;;;;;5033923;28;20033;-70
2022/07/18 04:16:43;;;;;;;6.05;2.33;;;17.20;99.40;;;;;;5030931;28;20506;-70
2022/07/18 04:19:09;;;;;;;3.67;1.58;;;17.40;98.70;;;;;;5031225;28;20056;-70
2022/07/18 04:21:35;;;;;;;3.70;1.60;;;17.40;98.70;;;;;;5031196;28;20073;-70
2022/07/18 04:24:00;;;;;;;5.15;1.58;;;17.40;99.00;;;;;;5030725;28;20091;-67
2022/07/18 04:26:26;;;;;;;6.63;1.52;;;17.40;99.30;;;;;;5034594;28;20037;-70
2022/07/18 04:28:51;;;;;;;5.97;1.80;;;17.40;99.40;;;;;;5030541;28;20048;-70
2022/07/18 04:31:17;;;;;;;6.45;2.00;;;17.40;99.20;;;;;;5029485;28;20520;-71
2022/07/18 04:33:43;;;;;;;6.18;1.83;;;17.40;99.30;;;;;;5029520;28;20029;-70
2022/07/18 04:36:08;;;;;;;5.10;2.03;;;17.50;99.10;;;;;;5029941;28;20105;-70
2022/07/18 04:38:37;;;;;;;4.18;1.83;;;17.50;99.50;;;;;;5030463;28;20447;-71
2022/07/18 04:41:03;;;;;;;6.40;1.48;;;17.50;99.40;;;;;;5030163;28;20029;-70
2022/07/18 04:43:29;;;;;;;8.13;2.55;;;17.50;99.70;;;;;;5030211;28;20037;-68
2022/07/18 04:45:54;;;;;;;4.57;1.67;;;17.40;99.90;;;;;;5028865;28;20068;-70
2022/07/18 04:48:20;;;;;;;6.18;2.08;;;17.50;99.90;;;;;;5026062;28;20030;-69
2022/07/18 04:50:45;;;;;;;7.95;2.33;;;17.50;99.60;;;;;;5026192;28;20055;-66
2022/07/18 04:53:11;;;;;;;4.68;1.77;;;17.50;99.80;;;;;;5027666;28;20037;-69
2022/07/18 04:55:36;;;;;;;6.53;1.42;;;17.50;99.90;;;;;;5028272;28;20044;-70
2022/07/18 04:58:02;;;;;;;3.63;1.65;;;17.60;99.80;;;;;;5024596;28;20652;-69
2022/07/18 05:00:28;;;;;;;4.80;2.05;;;17.60;99.90;;;;;;5027234;28;20044;-66
2022/07/18 05:02:55;;;;;;;6.53;1.80;;;17.60;99.90;;;;;;5027736;28;20033;-69
2022/07/18 05:05:21;;;;;;;4.35;1.52;;;17.60;99.90;;;;;;5027144;28;20505;-69
2022/07/18 05:07:48;;;;;;;4.60;1.98;;;17.70;99.80;;;;;;5028279;28;20040;-69
2022/07/18 05:10:16;;;;;;;7.55;1.90;;;17.70;99.60;;;;;;5028810;28;20033;-71
2022/07/18 05:12:45;;;;;;;10.23;1.92;;;17.70;99.40;;;;;;5028489;28;20037;-71
2022/07/18 05:15:14;;;;;;;7.85;1.85;;;17.70;99.70;;;;;;5026029;28;20485;-70
2022/07/18 05:17:40;;;;;;;6.47;1.73;;;17.80;99.90;;;;;;5027889;28;20029;-70
2022/07/18 05:20:09;;;;;;;7.03;2.50;;;17.70;99.90;;;;;;5029155;28;20580;-66
2022/07/18 05:22:36;;;;;;;4.30;1.80;;;17.70;99.90;;;;;;5027345;28;20052;-69
2022/07/18 05:25:04;;;;;;;4.50;1.75;;;17.80;99.90;;;;;;5026772;28;20401;-67
2022/07/18 05:27:30;;;;;;;4.20;1.48;;;17.80;99.90;;;;;;5026500;28;20053;-68
2022/07/18 05:29:55;;;;;;;6.30;1.70;;;17.80;99.90;;;;;;5027746;28;20061;-70
2022/07/18 05:32:21;;;;;;;4.78;1.52;;;17.80;99.90;;;;;;5027472;28;20088;-70
2022/07/18 05:34:47;;;;;;;5.05;1.95;;;17.90;99.90;;;;;;5026149;28;20520;-67
2022/07/18 05:37:13;;;;;;;5.85;2.10;;;17.90;99.90;;;;;;5029084;28;20429;-70
2022/07/18 05:39:39;;;;;;;11.82;2.58;;;17.90;99.90;;;;;;5024552;28;20084;-67
2022/07/18 05:42:04;;;;;;;9.07;1.90;;;18.00;99.90;;;;;;5028015;28;20513;-69
2022/07/18 05:44:30;;;;;;;4.97;1.90;;;18.20;99.90;;;;;;5025712;28;20041;-66
2022/07/18 05:46:56;;;;;;;8.95;2.42;;;18.30;99.60;;;;;;5028283;28;20057;-69
2022/07/18 05:49:21;;;;;;;3.60;1.45;;;18.60;98.80;;;;;;5026916;28;20094;-71
2022/07/18 05:51:47;;;;;;;9.13;1.70;;;18.70;98.90;;;;;;5029896;28;20170;-67
2022/07/18 05:54:18;;;;;;;6.38;2.25;;;18.90;98.60;;;;;;5027690;28;20401;-69
2022/07/18 05:56:45;;;;;;;9.10;1.95;;;19.20;98.20;;;;;;5028278;28;20064;-69
2022/07/18 05:59:10;;;;;;;3.63;1.80;;;19.60;98.00;;;;;;5025161;28;20034;-67
2022/07/18 06:01:36;;;;;;;8.38;1.85;;;20.10;97.20;;;;;;5024967;28;20038;-69
2022/07/18 06:04:03;;;;;;;7.38;1.92;;;20.50;97.20;;;;;;5025429;28;20110;-70
2022/07/18 06:06:30;;;;;;;9.60;2.28;;;20.80;95.90;;;;;;5027454;28;20513;-69
2022/07/18 06:08:55;;;;;;;5.82;2.03;;;21.20;94.60;;;;;;5023306;28;20086;-70
2022/07/18 06:11:21;;;;;;;3.88;2.03;;;21.30;94.40;;;;;;5024617;28;20120;-70
2022/07/18 06:13:46;;;;;;;6.55;2.55;;;21.40;94.50;;;;;;5024381;28;20037;-68
2022/07/18 06:16:12;;;;;;;5.20;1.83;;;21.40;94.50;;;;;;5028286;28;20044;-70
2022/07/18 06:18:37;;;;;;;5.75;1.48;;;21.50;94.40;;;;;;5025714;28;20025;-69
2022/07/18 06:21:04;;;;;;;5.78;1.98;;;21.40;95.10;;;;;;5028000;28;20052;-70
2022/07/18 06:23:30;;;;;;;3.33;1.50;;;21.30;95.30;;;;;;5024881;28;20044;-70
2022/07/18 06:25:56;;;;;;;4.95;1.90;;;21.30;95.30;;;;;;5030693;28;20390;-69
2022/07/18 06:28:22;;;;;;;5.40;2.13;;;21.30;94.80;;;;;;5026189;28;20068;-70
2022/07/18 06:30:48;;;;;;;4.38;1.95;;;21.30;94.60;;;;;;5026955;28;20076;-67
2022/07/18 06:33:13;;;;;;;3.58;1.65;;;21.40;94.80;;;;;;5025714;28;20467;-69
2022/07/18 06:35:40;;;;;;;4.68;1.88;;;21.50;95.10;;;;;;5024817;28;20110;-69
2022/07/18 06:38:05;;;;;;;7.40;1.75;;;21.70;94.00;;;;;;5026963;28;20056;-70
2022/07/18 06:40:31;;;;;;;6.35;1.60;;;21.90;94.00;;;;;;5026644;28;20054;-70
2022/07/18 06:42:57;;;;;;;7.10;1.83;;;22.10;93.20;;;;;;5023300;28;20034;-69
2022/07/18 06:45:23;;;;;;;3.00;1.27;;;22.20;92.60;;;;;;5025766;28;20084;-70
2022/07/18 06:47:48;;;;;;;8.82;2.30;;;22.50;92.40;;;;;;5025958;28;20041;-69
2022/07/18 06:50:15;;;;;;;4.45;1.83;;;22.80;92.40;;;;;;5028241;28;20548;-70
2022/07/18 06:52:42;;;;;;;3.50;1.35;;;23.20;92.80;;;;;;5023255;28;20105;-69
2022/07/18 06:55:08;;;;;;;5.65;1.55;;;23.50;91.70;;;;;;5030167;28;20044;-70
2022/07/18 06:57:34;;;;;;;7.93;1.58;;;23.80;90.90;;;;;;5028659;28;20041;-69
2022/07/18 06:59:59;;;;;;;6.82;1.80;;;24.10;90.50;;;;;;5031054;28;20041;-69
2022/07/18 07:02:25;;;;;;;3.67;1.65;;;24.30;90.70;;;;;;5028510;28;20033;-70
2022/07/18 07:04:51;;;;;;;5.55;2.08;;;24.50;90.70;;;;;;5030481;28;20042;-70
2022/07/18 07:07:16;;;;;;;4.15;1.92;;;24.70;89.90;;;;;;5029528;28;20040;-70
2022/07/18 07:09:42;;;;;;;10.90;1.85;;;24.90;90.60;;;;;;5026434;28;20076;-67
2022/07/18 07:12:09;;;;;;;3.28;1.40;;;25.10;91.40;;;;;;5030338;28;20033;-70
2022/07/18 07:14:36;;;;;;;4.35;2.15;;;25.30;91.30;;;;;;5031524;28;20026;-70
2022/07/18 07:17:02;;;;;;;6.53;1.52;;;25.60;89.20;;;;;;5029058;28;20032;-69
2022/07/18 07:19:27;;;;;;;5.13;1.58;;;26.10;85.80;;;;;;5031194;28;20242;-70
2022/07/18 07:21:53;;;;;;;9.90;1.58;;;26.60;88.20;;;;;;5027700;28;20040;-69
2022/07/18 07:24:18;;;;;;;6.40;1.58;;;27.00;87.60;;;;;;5028692;28;20048;-70
2022/07/18 07:26:44;;;;;;;6.05;1.75;;;27.30;84.50;;;;;;5029973;28;20513;-72
2022/07/18 07:29:10;;;;;;;7.63;2.10;;;27.70;84.70;;;;;;5030626;28;20401;-71
2022/07/18 07:31:35;;;;;;;2.67;1.40;;;28.10;85.80;;;;;;5030309;28;20041;-71
2022/07/18 07:34:01;;;;;;;3.90;1.67;;;28.50;82.80;;;;;;5031459;28;20040;-72
2022/07/18 07:36:26;;;;;;;3.35;1.65;;;29.20;82.70;;;;;;5030705;28;20045;-72
2022/07/18 07:38:52;;;;;;;6.75;2.15;;;29.80;79.90;;;;;;5028908;28;20033;-71
2022/07/18 07:41:17;;;;;;;7.28;2.22;;;30.40;77.60;;;;;;5028461;28;20509;-69
2022/07/18 07:43:43;;;;;;;4.25;1.88;;;30.50;76.60;;;;;;5030149;28;20138;-69
2022/07/18 07:46:10;;;;;;;7.90;1.55;;;30.90;77.60;;;;;;5031387;28;20091;-71
2022/07/18 07:48:36;;;;;;;5.13;1.88;;;31.50;76.10;;;;;;5030166;28;20033;-72
2022/07/18 07:51:03;;;;;;;6.07;2.28;;;31.80;76.90;;;;;;5030670;28;20034;-72
2022/07/18 07:53:29;;;;;;;9.93;1.98;;;32.40;73.90;;;;;;5028639;28;20575;-69
2022/07/18 07:55:54;;;;;;;12.52;2.65;;;33.00;72.10;;;;;;5030184;28;20033;-71
2022/07/18 07:58:20;;;;;;;6.15;2.00;;;33.10;72.00;;;;;;5029146;28;20394;-72
2022/07/18 08:00:46;;;;;;;6.57;2.50;;;33.50;70.40;;;;;;5025085;28;20040;-71
2022/07/18 08:03:11;;;;;;;7.32;2.28;;;33.60;68.50;;;;;;5030161;28;20041;-70
2022/07/18 08:05:43;;;;;;;8.10;2.92;;;33.70;68.30;;;;;;5028289;28;20025;-71
2022/07/18 08:08:08;;;;;;;4.13;1.75;;;33.30;65.60;;;;;;5029838;28;20108;-72
2022/07/18 08:10:34;;;;;;;6.57;2.00;;;33.40;67.10;;;;;;5028573;28;20243;-69
2022/07/18 08:13:00;;;;;;;7.38;1.88;;;33.20;66.10;;;;;;5029539;28;20485;-70
2022/07/18 08:15:26;;;;;;;4.75;2.15;;;32.60;66.20;;;;;;5026519;28;20029;-71
2022/07/18 08:17:52;;;;;;;3.88;1.80;;;31.90;65.90;;;;;;5028967;28;20060;-72
2022/07/18 08:20:18;;;;;;;6.80;2.10;;;31.30;66.20;;;;;;5028699;28;20025;-69
2022/07/18 08:22:55;;;;;;;8.43;2.35;;;30.80;69.10;;;;;;5026881;28;20387;-72
2022/07/18 08:25:22;;;;;;;3.15;1.50;;;30.30;69.00;;;;;;5027384;28;20412;-72
2022/07/18 08:27:48;;;;;;;3.60;1.58;;;29.80;69.60;;;;;;5028809;28;20032;-71
2022/07/18 08:30:14;;;;;;;6.03;2.45;;;29.60;70.70;;;;;;5026973;28;20037;-69
2022/07/18 08:32:39;;;;;;;7.28;1.73;;;29.40;70.50;;;;;;5028665;28;20033;-70
2022/07/18 08:35:06;;;;;;;6.60;1.50;;;29.20;70.00;;;;;;5027443;28;20057;-70
2022/07/18 08:37:31;;;;;;;5.55;1.50;;;29.10;71.30;;;;;;5029101;28;20026;-68
2022/07/18 08:39:57;;;;;;;4.00;1.50;;;29.00;72.20;;;;;;5028452;28;20037;-71
2022/07/18 08:42:26;;;;;;;7.63;1.40;;;29.00;70.00;;;;;;5029281;28;20031;-71
2022/07/18 08:44:55;;;;;;;2.45;1.58;;;28.90;71.90;;;;;;5026517;28;20033;-71
2022/07/18 08:47:22;;;;;;;5.63;1.42;;;28.80;72.30;;;;;;5029046;28;20026;-71
2022/07/18 08:49:48;;;;;;;4.80;1.70;;;28.80;72.00;;;;;;5027260;28;20032;-70
2022/07/18 08:52:15;;;;;;;3.67;1.65;;;28.90;69.50;;;;;;5022570;28;20025;-71
2022/07/18 08:54:41;;;;;;;4.70;1.48;;;28.90;70.50;;;;;;5027056;28;20029;-70
2022/07/18 08:57:07;;;;;;;4.97;1.83;;;29.00;70.10;;;;;;5029207;28;20061;-69
2022/07/18 08:59:32;;;;;;;2.80;1.55;;;28.80;69.60;;;;;;5025294;28;20497;-70
2022/07/18 09:01:58;;;;;;;5.32;2.00;;;28.80;72.20;;;;;;5028081;28;20037;-72
2022/07/18 09:04:41;;;;;;;4.85;1.83;;;28.40;71.30;;;;;;5027630;28;20490;-72
2022/07/18 09:07:08;;;;;;;6.63;1.85;;;28.00;73.00;;;;;;5028106;28;20061;-68
2022/07/18 09:09:35;;;;;;;3.70;1.35;;;27.80;74.00;;;;;;5027039;28;20497;-68
2022/07/18 09:12:02;;;;;;;4.25;2.05;;;27.90;74.70;;;;;;5028070;28;20111;-72
2022/07/18 09:14:38;;;;;;;5.15;1.92;;;28.20;74.20;;;;;;5028417;28;20424;-72
2022/07/18 09:17:18;;;;;;;3.05;1.70;;;28.40;73.30;;;;;;5025633;28;20482;-69
2022/07/18 09:20:11;;;;;;;5.63;1.77;;;28.40;73.10;;;;;;5025300;28;20021;-70
2022/07/18 09:22:47;;;;;;;5.57;1.73;;;28.60;72.80;;;;;;5020926;28;20724;-69
2022/07/18 09:25:12;;;;;;;7.57;1.95;;;28.60;73.60;;;;;;5026953;28;20038;-69
2022/07/18 09:27:49;;;;;;;2.85;1.52;;;28.70;71.70;;;;;;5027679;28;20071;-70
2022/07/18 09:30:32;;;;;;;5.10;2.03;;;28.80;72.40;;;;;;5023007;28;20030;-70
2022/07/18 09:33:03;;;;;;;9.98;2.08;;;29.10;70.00;;;;;;5022693;28;20032;-68
2022/07/18 09:35:35;;;;;;;4.13;2.08;;;29.20;72.50;;;;;;5025348;28;20512;-69
2022/07/18 09:38:08;;;;;;;7.68;2.13;;;29.30;72.30;;;;;;5023288;28;20041;-70
2022/07/18 09:40:39;;;;;;;5.90;2.00;;;29.10;70.30;;;;;;5024848;28;20473;-66
2022/07/18 09:43:21;;;;;;;3.03;1.95;;;29.00;71.50;;;;;;5025095;28;21664;-67
2022/07/18 09:45:51;;;;;;;5.85;1.48;;;28.90;67.90;;;;;;5023363;28;20135;-69
2022/07/18 09:48:19;;;;;;;2.28;1.65;;;29.00;66.10;;;;;;5025842;28;20072;-70
2022/07/18 09:50:55;;;;;;;6.03;1.30;;;29.10;68.10;;;;;;5024529;28;20034;-71
2022/07/18 09:53:27;;;;;;;3.95;0.90;;;29.20;68.70;;;;;;5021855;28;20038;-67
2022/07/18 09:56:02;;;;;;;3.13;1.13;;;29.20;71.70;;;;;;5026169;28;20033;-70
2022/07/18 09:58:30;;;;;;;4.47;1.10;;;29.40;64.30;;;;;;5024848;28;20032;-71
2022/07/18 10:00:58;;;;;;;2.75;1.13;;;29.40;58.30;;;;;;5025620;28;20033;-68
2022/07/18 10:03:24;;;;;;;3.38;1.17;;;29.40;61.70;;;;;;5025884;28;20025;-69
2022/07/18 10:05:51;;;;;;;3.03;0.73;;;29.50;64.50;;;;;;5022857;28;20033;-69
2022/07/18 10:08:19;;;;;;;3.13;1.48;;;29.60;65.10;;;;;;5025841;28;20042;-68
2022/07/18 10:10:49;;;;;;;2.33;0.80;;;29.80;66.30;;;;;;5022156;28;20042;-70
2022/07/18 10:13:16;;;;;;;3.80;1.30;;;29.90;62.00;;;;;;5025075;28;20455;-70
2022/07/18 10:15:44;;;;;;;2.17;0.77;;;30.00;59.00;;;;;;5023234;28;20033;-72
2022/07/18 10:18:13;;;;;;;4.78;1.35;;;30.00;61.90;;;;;;5018334;28;20032;-70
2022/07/18 10:20:40;;;;;;;2.20;0.88;;;30.10;59.40;;;;;;5024464;28;20044;-69
2022/07/18 10:23:15;;;;;;;2.15;0.70;;;30.20;60.70;;;;;;5022599;28;20032;-69
2022/07/18 10:25:41;;;;;;;4.88;0.93;;;30.30;61.60;;;;;;5022691;28;20029;-66
2022/07/18 10:28:14;;;;;;;1.67;0.77;;;30.20;58.50;;;;;;5023735;28;20394;-67
2022/07/18 10:30:45;;;;;;;4.53;0.85;;;30.20;61.40;;;;;;5022135;28;20049;-71
2022/07/18 10:33:40;;;;;;;3.92;1.10;;;30.30;63.70;;;;;;5025765;28;20033;-70
2022/07/18 10:36:08;;;;;;;2.40;0.52;;;30.30;63.10;;;;;;5026028;28;20037;-68
2022/07/18 10:38:34;;;;;;;3.70;0.70;;;30.30;62.70;;;;;;5026167;28;20039;-68
2022/07/18 10:41:12;;;;;;;1.80;0.70;;;30.50;63.10;;;;;;5028744;28;20029;-70
2022/07/18 10:43:42;;;;;;;1.90;0.85;;;30.60;60.80;;;;;;5026332;28;20033;-66
2022/07/18 10:46:10;;;;;;;3.05;1.15;;;30.70;60.80;;;;;;5027995;28;20112;-67
2022/07/18 10:48:35;;;;;;;1.98;0.75;;;30.80;62.40;;;;;;5027944;28;20555;-66
2022/07/18 10:51:10;;;;;;;5.68;0.88;;;30.80;63.40;;;;;;5029549;28;20062;-69
2022/07/18 10:53:53;;;;;;;2.83;0.80;;;30.80;60.20;;;;;;5030972;28;20117;-66
2022/07/18 10:56:28;;;;;;;3.40;0.73;;;30.80;61.40;;;;;;5029602;28;20037;-70
2022/07/18 10:58:57;;;;;;;10.10;1.58;;;30.70;62.00;;;;;;5028534;28;20464;-69
2022/07/18 11:01:25;;;;;;;4.10;1.23;;;30.80;63.80;;;;;;5028553;28;20041;-67
2022/07/18 11:04:10;;;;;;;3.95;1.00;;;30.90;63.40;;;;;;5030892;28;20381;-66
2022/07/18 11:07:03;;;;;;;1.95;0.80;;;31.00;62.90;;;;;;5028085;28;20577;-68
2022/07/18 11:09:46;;;;;;;2.67;0.90;;;31.00;65.20;;;;;;5028601;28;20136;-68
2022/07/18 11:12:21;;;;;;;2.42;0.93;;;31.10;63.30;;;;;;5029033;28;20037;-69
2022/07/18 11:15:09;;;;;;;2.75;1.17;;;31.00;64.20;;;;;;5030735;28;20037;-69
2022/07/18 11:17:54;;;;;;;2.85;1.10;;;31.10;60.70;;;;;;5030531;28;20378;-70
2022/07/18 11:20:39;;;;;;;2.05;1.02;;;31.10;62.30;;;;;;5027376;28;20029;-68
2022/07/18 11:23:14;;;;;;;4.07;0.60;;;31.10;61.80;;;;;;5028132;28;20029;-71
2022/07/18 11:25:40;;;;;;;1.90;0.57;;;31.20;61.50;;;;;;5029436;28;20520;-70
2022/07/18 11:28:10;;;;;;;2.20;0.77;;;31.30;63.40;;;;;;5030329;28;20033;-68
2022/07/18 11:30:37;;;;;;;3.72;0.68;;;31.30;61.10;;;;;;5027839;28;20030;-69
2022/07/18 11:33:04;;;;;;;1.17;0.57;;;31.40;59.80;;;;;;5027844;28;20026;-70
2022/07/18 11:35:30;;;;;;;5.82;1.10;;;31.40;60.10;;;;;;5028857;28;20489;-68
2022/07/18 11:37:55;;;;;;;3.45;0.90;;;31.40;60.80;;;;;;5029930;28;20040;-67
2022/07/18 11:40:21;;;;;;;2.55;0.70;;;31.40;60.70;;;;;;5028395;28;20030;-67
2022/07/18 11:42:47;;;;;;;4.63;0.90;;;31.40;61.00;;;;;;5025734;28;20033;-70
2022/07/18 11:45:16;;;;;;;3.38;1.13;;;31.50;60.40;;;;;;5028019;28;20044;-70
2022/07/18 11:47:52;;;;;;;2.75;0.60;;;31.50;61.00;;;;;;5032100;28;20108;-70
2022/07/18 11:50:25;;;;;;;5.72;1.15;;;31.30;61.00;;;;;;5029233;28;20029;-66
2022/07/18 11:52:56;;;;;;;4.07;1.50;;;31.30;59.70;;;;;;5030809;28;20112;-70
2022/07/18 11:55:32;;;;;;;1.70;0.90;;;31.40;59.30;;;;;;5029314;28;20040;-69
2022/07/18 11:58:06;;;;;;;1.67;0.70;;;31.30;57.30;;;;;;5027379;28;20041;-69
2022/07/18 12:00:32;;;;;;;2.97;1.08;;;31.30;59.10;;;;;;5028361;28;20030;-69
2022/07/18 12:03:14;;;;;;;1.88;0.95;;;31.30;58.40;;;;;;5027492;28;20045;-68
2022/07/18 12:05:52;;;;;;;2.67;1.00;;;31.30;59.40;;;;;;5026595;28;20042;-68
2022/07/18 12:08:29;;;;;;;4.40;1.33;;;31.20;56.70;;;;;;5027403;28;20049;-70
2022/07/18 12:11:17;;;;;;;1.67;0.95;;;31.20;59.30;;;;;;5028311;28;20068;-68
2022/07/18 12:14:08;;;;;;;3.83;0.82;;;31.20;58.70;;;;;;5028792;28;20501;-69
2022/07/18 12:16:46;;;;;;;2.05;0.98;;;31.10;58.90;;;;;;5026792;28;20048;-70
2022/07/18 12:19:14;;;;;;;2.50;1.10;;;31.00;60.30;;;;;;5025301;28;20030;-68
2022/07/18 12:21:53;;;;;;;2.30;1.05;;;31.00;58.60;;;;;;5029678;28;20030;-67
2022/07/18 12:24:30;;;;;;;3.23;1.30;;;31.00;59.50;;;;;;5027977;28;20045;-70
2022/07/18 12:27:23;;;;;;;2.75;0.80;;;30.90;58.60;;;;;;5029544;28;20303;-66
2022/07/18 12:30:06;;;;;;;2.63;1.05;;;30.90;58.50;;;;;;5025814;28;20120;-71
2022/07/18 12:32:46;;;;;;;2.30;0.90;;;31.00;59.20;;;;;;5027426;28;20779;-69
2022/07/18 12:35:24;;;;;;;2.10;0.82;;;31.00;59.60;;;;;;5028609;28;20179;-69
2022/07/18 12:38:12;;;;;;;3.13;1.38;;;31.00;59.20;;;;;;5027115;28;20475;-70
2022/07/18 12:41:01;;;;;;;1.40;0.93;;;30.90;60.30;;;;;;5025922;28;20394;-70
2022/07/18 12:43:31;;;;;;;2.40;0.93;;;30.90;60.40;;;;;;5028137;28;20034;-67
2022/07/18 12:45:59;;;;;;;4.60;0.90;;;30.80;61.40;;;;;;5027731;28;20064;-67
2022/07/18 12:48:27;;;;;;;5.18;0.77;;;30.80;61.50;;;;;;5025631;28;20128;-67
2022/07/18 12:51:01;;;;;;;4.13;1.10;;;30.80;62.60;;;;;;5025906;28;20041;-70